Time;durP1;ratioP1;P1;durP2;ratioP2;P2;SDS_P1;SDS_P2;PMS_P1;PMS_P2;Temp;Humidity;BMP_temperature;BMP_pressure;BME280_temperature;BME280_humidity;BME280_pressure;Samples;Min_cycle;Max_cycle;Signal;HPM_P1;HPM_P2
2022/05/18 00:00:27;;;;;;;5.60;1.40;;;8.30;93.10;;;;;;4384550;28;657795;-66
2022/05/18 00:03:15;;;;;;;5.70;1.60;;;8.10;93.40;;;;;;4362501;28;657021;-66
2022/05/18 00:06:02;;;;;;;3.30;1.27;;;8.10;93.70;;;;;;4380854;28;657878;-65
2022/05/18 00:08:49;;;;;;;4.67;1.50;;;8.00;92.60;;;;;;4401329;28;657926;-65
2022/05/18 00:11:37;;;;;;;4.77;1.80;;;8.00;93.90;;;;;;4376304;28;657004;-65
2022/05/18 00:14:24;;;;;;;5.23;1.60;;;7.90;93.30;;;;;;4405689;28;656212;-67
2022/05/18 00:17:26;;;;;;;5.43;1.70;;;7.90;91.50;;;;;;4375687;28;656670;-66
2022/05/18 00:20:13;;;;;;;5.10;1.40;;;7.80;93.10;;;;;;4378897;28;656701;-66
2022/05/18 00:23:01;;;;;;;7.87;1.53;;;7.90;89.30;;;;;;4381776;28;656432;-65
2022/05/18 00:25:48;;;;;;;7.07;1.40;;;7.80;89.60;;;;;;4407523;28;656227;-66
2022/05/18 00:28:35;;;;;;;7.50;1.50;;;7.90;88.80;;;;;;4380307;28;656646;-66
2022/05/18 00:31:22;;;;;;;5.47;1.47;;;8.00;85.30;;;;;;4402918;28;657012;-65
2022/05/18 00:34:12;;;;;;;8.77;1.80;;;8.00;83.40;;;;;;4418083;28;657397;-66
2022/05/18 00:36:59;;;;;;;4.73;1.83;;;8.00;81.40;;;;;;4402401;28;658148;-66
2022/05/18 00:39:46;;;;;;;3.73;1.50;;;7.90;82.10;;;;;;4378285;28;657142;-65
2022/05/18 00:42:33;;;;;;;6.10;1.80;;;7.90;82.70;;;;;;4403306;28;657737;-66
2022/05/18 00:45:21;;;;;;;7.73;1.80;;;7.80;84.10;;;;;;4400233;28;656768;-66
2022/05/18 00:48:09;;;;;;;3.90;1.40;;;7.70;85.90;;;;;;4404108;28;656243;-66
2022/05/18 00:50:58;;;;;;;8.20;1.63;;;7.70;86.10;;;;;;4381499;28;656805;-65
2022/05/18 00:53:46;;;;;;;5.00;1.70;;;7.60;87.10;;;;;;4379055;28;656479;-65
2022/05/18 00:56:36;;;;;;;4.60;1.53;;;7.60;88.70;;;;;;4394190;28;657746;-65
2022/05/18 00:59:24;;;;;;;10.60;2.00;;;7.50;87.00;;;;;;4376483;28;657147;-66
2022/05/18 01:02:12;;;;;;;5.47;1.70;;;7.50;86.70;;;;;;4363461;28;658038;-65
2022/05/18 01:05:00;;;;;;;6.17;1.70;;;7.40;91.00;;;;;;4400300;28;657359;-66
2022/05/18 01:07:52;;;;;;;2.53;1.40;;;7.30;89.20;;;;;;4372417;28;658458;-65
2022/05/18 01:10:46;;;;;;;3.37;1.40;;;7.30;90.00;;;;;;4399039;28;656461;-65
2022/05/18 01:13:34;;;;;;;6.10;1.83;;;7.20;90.50;;;;;;4377579;28;657514;-66
2022/05/18 01:16:21;;;;;;;12.47;1.57;;;7.10;90.70;;;;;;4385929;28;656601;-65
2022/05/18 01:19:09;;;;;;;6.77;1.80;;;7.00;90.30;;;;;;4399642;28;658195;-66
2022/05/18 01:22:00;;;;;;;8.37;1.80;;;7.10;90.00;;;;;;4385578;28;657244;-65
2022/05/18 01:24:51;;;;;;;4.78;1.77;;;7.10;88.00;;;;;;4370816;28;657474;-66
2022/05/18 01:27:40;;;;;;;9.70;1.73;;;7.00;86.20;;;;;;4377067;28;657765;-66
2022/05/18 01:30:27;;;;;;;7.30;1.93;;;7.00;88.00;;;;;;4375579;28;658370;-65
2022/05/18 01:33:22;;;;;;;3.63;1.43;;;6.90;88.20;;;;;;4400805;28;656819;-66
2022/05/18 01:36:10;;;;;;;5.47;1.50;;;6.80;85.90;;;;;;4400074;28;656463;-65
2022/05/18 01:38:57;;;;;;;3.70;1.30;;;6.80;86.70;;;;;;4403678;28;657232;-65
2022/05/18 01:41:47;;;;;;;4.63;1.37;;;6.70;83.40;;;;;;4404361;28;656623;-65
2022/05/18 01:44:36;;;;;;;11.07;1.80;;;6.70;78.10;;;;;;4381037;28;656848;-66
2022/05/18 01:47:27;;;;;;;4.97;1.45;;;6.70;78.70;;;;;;4379533;28;657787;-66
2022/05/18 01:50:16;;;;;;;5.38;1.35;;;6.60;79.00;;;;;;4367515;28;656860;-66
2022/05/18 01:53:03;;;;;;;11.20;1.40;;;6.60;78.00;;;;;;4373394;28;657044;-66
2022/05/18 01:55:50;;;;;;;10.80;1.63;;;6.50;76.00;;;;;;4384402;28;658117;-66
2022/05/18 01:58:37;;;;;;;4.67;1.40;;;6.40;77.70;;;;;;4403000;28;659001;-66
2022/05/18 02:01:26;;;;;;;2.50;1.20;;;6.40;75.80;;;;;;4396896;28;656505;-66
2022/05/18 02:04:13;;;;;;;2.90;1.13;;;6.40;74.00;;;;;;4377318;28;657583;-65
2022/05/18 02:07:00;;;;;;;4.57;1.30;;;6.40;75.80;;;;;;4383535;28;656836;-66
2022/05/18 02:09:48;;;;;;;6.30;1.40;;;6.30;76.70;;;;;;4403102;28;658071;-65
2022/05/18 02:12:35;;;;;;;5.97;1.17;;;6.30;75.10;;;;;;4388295;28;657388;-65
2022/05/18 02:15:23;;;;;;;9.20;1.67;;;6.30;73.70;;;;;;4404516;28;657177;-66
2022/05/18 02:18:12;;;;;;;7.97;1.43;;;6.30;75.30;;;;;;4381310;28;657031;-65
2022/05/18 02:21:02;;;;;;;7.60;1.43;;;6.20;76.10;;;;;;4401782;28;656252;-66
2022/05/18 02:23:49;;;;;;;2.70;1.30;;;6.20;74.10;;;;;;4370749;28;657542;-66
2022/05/18 02:26:36;;;;;;;4.33;1.70;;;6.10;77.70;;;;;;4385111;28;656706;-66
2022/05/18 02:29:31;;;;;;;4.10;1.50;;;6.10;76.90;;;;;;4402550;28;657316;-66
2022/05/18 02:32:18;;;;;;;4.03;1.40;;;6.10;76.20;;;;;;4373942;28;658147;-66
2022/05/18 02:35:08;;;;;;;2.80;1.40;;;6.00;78.60;;;;;;4380962;28;656725;-65
2022/05/18 02:37:55;;;;;;;5.97;1.60;;;6.00;77.80;;;;;;4384688;28;656701;-65
2022/05/18 02:40:42;;;;;;;6.03;1.50;;;5.90;80.40;;;;;;4403513;28;657058;-66
2022/05/18 02:43:30;;;;;;;3.67;1.20;;;5.80;80.30;;;;;;4399566;28;656383;-66
2022/05/18 02:46:19;;;;;;;5.10;1.33;;;5.90;81.30;;;;;;4404549;28;657656;-65
2022/05/18 02:49:06;;;;;;;7.77;1.50;;;5.90;79.30;;;;;;4384336;28;657183;-66
2022/05/18 02:51:55;;;;;;;6.80;1.47;;;5.90;77.50;;;;;;4400998;28;657841;-65
2022/05/18 02:57:47;;;;;;;5.57;1.20;;;5.80;80.40;;;;;;4363025;28;656777;-65
2022/05/18 03:00:34;;;;;;;2.70;1.37;;;5.80;80.80;;;;;;4386583;28;657168;-65
2022/05/18 03:03:21;;;;;;;4.23;1.30;;;5.80;82.90;;;;;;4382515;28;656625;-65
2022/05/18 03:06:09;;;;;;;8.45;1.60;;;5.80;81.90;;;;;;4409010;28;657065;-66
2022/05/18 03:08:58;;;;;;;2.83;1.50;;;5.80;82.50;;;;;;4379070;28;658138;-65
2022/05/18 03:11:47;;;;;;;4.82;1.60;;;5.70;83.90;;;;;;4374384;28;656679;-65
2022/05/18 03:14:34;;;;;;;6.50;1.50;;;5.60;86.70;;;;;;4393144;28;656548;-66
2022/05/18 03:17:21;;;;;;;4.80;1.47;;;5.60;87.50;;;;;;4381538;28;656684;-66
2022/05/18 03:23:33;;;;;;;9.00;1.63;;;5.60;90.70;;;;;;4402515;28;656812;-66
2022/05/18 03:23:33;;;;;;;11.47;1.70;;;5.60;90.80;;;;;;4358771;28;657279;-65
2022/05/18 03:26:23;;;;;;;2.70;1.40;;;5.50;91.90;;;;;;4379352;28;658649;-65
2022/05/18 03:29:10;;;;;;;7.10;1.50;;;5.50;88.90;;;;;;4397369;28;656340;-65
2022/05/18 03:31:57;;;;;;;5.67;1.37;;;5.50;92.00;;;;;;4409518;28;657118;-66
2022/05/18 03:34:44;;;;;;;4.90;2.37;;;5.60;89.40;;;;;;4405705;28;656702;-66
2022/05/18 03:37:32;;;;;;;6.13;2.13;;;5.50;90.30;;;;;;4383407;28;656958;-66
2022/05/18 03:40:19;;;;;;;9.03;2.40;;;5.60;88.70;;;;;;4404474;28;656284;-65
2022/05/18 03:43:07;;;;;;;2.03;1.33;;;5.60;90.30;;;;;;4388412;28;656320;-66
2022/05/18 03:45:55;;;;;;;6.33;1.50;;;5.60;86.50;;;;;;4404760;28;656528;-65
2022/05/18 03:48:43;;;;;;;7.33;1.67;;;5.70;83.90;;;;;;4390123;28;657824;-65
2022/05/18 03:51:30;;;;;;;3.78;1.40;;;5.70;83.40;;;;;;4383113;28;656464;-65
2022/05/18 03:54:17;;;;;;;5.60;1.50;;;5.80;84.50;;;;;;4399266;28;657363;-65
2022/05/18 03:57:09;;;;;;;8.00;1.47;;;5.80;87.20;;;;;;4402020;28;656516;-65
2022/05/18 03:59:58;;;;;;;6.77;1.50;;;5.80;82.70;;;;;;4380993;28;656678;-65
2022/05/18 04:02:47;;;;;;;5.10;1.45;;;5.90;81.80;;;;;;4386286;28;657832;-65
2022/05/18 04:05:37;;;;;;;2.60;1.60;;;6.00;83.10;;;;;;4394965;28;656976;-66
2022/05/18 04:08:24;;;;;;;5.83;1.50;;;6.10;80.70;;;;;;4403668;28;656935;-66
2022/05/18 04:11:11;;;;;;;4.93;1.40;;;6.20;80.40;;;;;;4382867;28;656881;-65
2022/05/18 04:13:58;;;;;;;3.87;1.57;;;6.20;78.80;;;;;;4403955;28;657030;-66
2022/05/18 04:16:49;;;;;;;4.73;2.10;;;6.30;82.40;;;;;;4380077;28;656990;-65
2022/05/18 04:19:36;;;;;;;7.33;1.50;;;6.30;79.00;;;;;;4381369;28;657333;-65
2022/05/18 04:22:23;;;;;;;3.07;1.20;;;6.40;78.90;;;;;;4411434;28;657240;-66
2022/05/18 04:25:11;;;;;;;3.03;1.50;;;6.50;77.70;;;;;;4368263;28;656847;-66
2022/05/18 04:27:58;;;;;;;5.70;1.20;;;6.60;76.60;;;;;;4385185;28;657167;-65
2022/05/18 04:30:46;;;;;;;4.15;1.40;;;6.60;76.60;;;;;;4384599;28;656603;-65
2022/05/18 04:33:34;;;;;;;2.80;1.50;;;6.60;77.30;;;;;;4400491;28;656798;-66
2022/05/18 04:36:22;;;;;;;5.23;1.43;;;6.70;79.20;;;;;;4382017;28;657041;-65
2022/05/18 04:39:09;;;;;;;5.53;1.50;;;6.80;74.50;;;;;;4371190;28;656520;-66
2022/05/18 04:41:56;;;;;;;8.47;1.57;;;7.00;73.90;;;;;;4374083;28;656572;-67
2022/05/18 04:44:43;;;;;;;3.37;1.30;;;7.00;73.90;;;;;;4398442;28;658561;-66
2022/05/18 04:47:31;;;;;;;5.53;1.40;;;7.10;74.60;;;;;;4384306;28;657263;-66
2022/05/18 04:50:19;;;;;;;2.37;1.20;;;7.10;75.20;;;;;;4388195;28;657458;-66
2022/05/18 04:53:06;;;;;;;3.73;1.50;;;7.20;74.10;;;;;;4382105;28;656717;-66
2022/05/18 04:55:54;;;;;;;4.43;1.60;;;7.30;74.20;;;;;;4402572;28;657401;-66
2022/05/18 04:58:41;;;;;;;9.50;1.70;;;7.40;74.30;;;;;;4382929;28;657078;-65
2022/05/18 05:01:30;;;;;;;5.03;1.47;;;7.50;70.80;;;;;;4403808;28;656528;-66
2022/05/18 05:04:17;;;;;;;4.27;1.30;;;7.50;70.50;;;;;;4387086;28;657976;-66
2022/05/18 05:07:06;;;;;;;10.70;1.70;;;7.50;72.20;;;;;;4400313;28;656541;-66
2022/05/18 05:09:53;;;;;;;7.70;1.50;;;7.60;72.10;;;;;;4377058;28;657943;-66
2022/05/18 05:12:40;;;;;;;2.83;1.30;;;7.70;69.50;;;;;;4383762;28;657492;-66
2022/05/18 05:15:27;;;;;;;3.10;1.37;;;7.80;70.20;;;;;;4405180;28;656811;-66
2022/05/18 05:18:15;;;;;;;5.60;1.63;;;7.90;70.20;;;;;;4390393;28;656487;-66
2022/05/18 05:21:02;;;;;;;2.43;1.27;;;7.90;68.10;;;;;;4399780;28;657348;-66
2022/05/18 05:23:51;;;;;;;3.60;1.40;;;8.00;68.30;;;;;;4398671;28;656567;-66
2022/05/18 05:26:39;;;;;;;6.03;1.50;;;8.10;67.80;;;;;;4404962;28;656753;-66
2022/05/18 05:29:26;;;;;;;4.10;1.30;;;8.20;69.90;;;;;;4384253;28;656947;-66
2022/05/18 05:32:13;;;;;;;3.20;1.47;;;8.40;71.00;;;;;;4395998;28;657162;-66
2022/05/18 05:35:00;;;;;;;2.87;1.13;;;8.50;67.00;;;;;;4403973;28;656140;-65
2022/05/18 05:37:47;;;;;;;6.17;1.33;;;8.50;64.20;;;;;;4398910;28;657445;-66
2022/05/18 05:40:37;;;;;;;3.27;1.47;;;8.50;65.20;;;;;;4390387;28;656173;-66
2022/05/18 05:43:24;;;;;;;3.53;1.27;;;8.60;63.50;;;;;;4404316;28;656632;-66
2022/05/18 05:46:13;;;;;;;5.20;1.40;;;8.70;65.00;;;;;;4384928;28;656422;-67
2022/05/18 05:49:01;;;;;;;8.70;1.47;;;8.90;64.10;;;;;;4381746;28;656795;-66
2022/05/18 05:51:48;;;;;;;3.00;1.10;;;8.90;71.00;;;;;;4402021;28;656759;-66
2022/05/18 05:54:35;;;;;;;3.17;1.58;;;9.00;64.20;;;;;;4382309;28;656904;-66
2022/05/18 05:57:24;;;;;;;2.73;1.40;;;8.90;67.50;;;;;;4410275;28;657302;-66
2022/05/18 06:00:12;;;;;;;4.07;1.10;;;9.00;64.10;;;;;;4378432;28;657044;-65
2022/05/18 06:02:59;;;;;;;5.03;1.20;;;9.00;62.20;;;;;;4398223;28;656956;-66
2022/05/18 06:05:46;;;;;;;2.47;1.23;;;9.10;62.90;;;;;;4400028;28;656747;-65
2022/05/18 06:08:34;;;;;;;3.03;1.40;;;9.20;63.00;;;;;;4418162;28;658177;-66
2022/05/18 06:11:21;;;;;;;7.10;1.47;;;9.40;60.60;;;;;;4379355;28;656553;-66
2022/05/18 06:14:09;;;;;;;6.23;1.60;;;9.30;62.60;;;;;;4401641;28;657389;-66
2022/05/18 06:16:57;;;;;;;3.47;1.50;;;9.30;59.80;;;;;;4382571;28;657003;-66
2022/05/18 06:19:44;;;;;;;7.40;1.10;;;9.50;61.70;;;;;;4398660;28;656291;-66
2022/05/18 06:22:31;;;;;;;6.50;1.40;;;9.60;56.80;;;;;;4385372;28;657354;-66
2022/05/18 06:25:18;;;;;;;1.90;1.13;;;9.90;55.10;;;;;;4398914;28;657158;-66
2022/05/18 06:28:06;;;;;;;3.03;1.20;;;10.20;52.60;;;;;;4382990;28;656969;-66
2022/05/18 06:30:55;;;;;;;2.43;1.10;;;10.20;52.20;;;;;;4401602;28;657964;-66
2022/05/18 06:33:42;;;;;;;3.10;1.07;;;10.40;53.20;;;;;;4381406;28;658402;-66
2022/05/18 06:36:30;;;;;;;5.40;1.03;;;10.60;55.60;;;;;;4402858;28;657549;-66
2022/05/18 06:39:18;;;;;;;5.20;1.20;;;10.70;53.10;;;;;;4379498;28;658532;-66
2022/05/18 06:42:06;;;;;;;3.23;1.00;;;10.80;53.30;;;;;;4400968;28;657133;-66
2022/05/18 06:44:54;;;;;;;1.63;1.00;;;11.10;49.10;;;;;;4407277;28;658093;-66
2022/05/18 06:47:43;;;;;;;2.00;1.03;;;11.00;48.30;;;;;;4407315;28;658662;-66
2022/05/18 06:50:30;;;;;;;3.17;1.07;;;11.00;49.10;;;;;;4380830;28;658073;-66
2022/05/18 06:53:17;;;;;;;2.00;0.90;;;11.10;49.00;;;;;;4418349;28;657857;-66
2022/05/18 06:56:05;;;;;;;2.43;0.73;;;11.40;46.00;;;;;;4404128;28;657741;-66
2022/05/18 06:58:53;;;;;;;4.17;0.97;;;11.70;46.00;;;;;;4402420;28;659076;-66
2022/05/18 07:01:40;;;;;;;4.30;1.10;;;11.80;45.50;;;;;;4395786;28;657816;-66
2022/05/18 07:04:29;;;;;;;1.30;0.80;;;11.70;46.00;;;;;;4423684;28;658707;-66
2022/05/18 07:07:16;;;;;;;2.33;0.80;;;11.30;46.70;;;;;;4382972;28;659070;-66
2022/05/18 07:10:04;;;;;;;4.33;0.97;;;11.50;45.30;;;;;;4400179;28;658738;-66
2022/05/18 07:12:58;;;;;;;2.33;0.77;;;11.50;42.60;;;;;;4380247;28;658117;-66
2022/05/18 07:15:45;;;;;;;4.23;0.97;;;11.80;43.50;;;;;;4359880;28;657567;-66
2022/05/18 07:18:34;;;;;;;1.20;0.80;;;12.20;43.70;;;;;;4406329;28;658663;-66
2022/05/18 07:21:30;;;;;;;1.97;0.90;;;12.00;43.90;;;;;;4403487;28;657217;-65
2022/05/18 07:24:17;;;;;;;4.43;0.97;;;12.00;44.60;;;;;;4383086;28;657894;-66
2022/05/18 07:27:06;;;;;;;2.47;1.00;;;12.50;45.90;;;;;;4387788;28;657826;-66
2022/05/18 07:29:53;;;;;;;2.07;0.70;;;12.60;40.20;;;;;;4398731;28;658815;-67
2022/05/18 07:32:40;;;;;;;5.23;0.80;;;12.70;41.50;;;;;;4381594;28;658202;-65
2022/05/18 07:35:28;;;;;;;2.53;0.83;;;12.80;40.10;;;;;;4422808;28;659849;-66
2022/05/18 07:38:17;;;;;;;3.63;0.80;;;13.00;40.10;;;;;;4375196;28;658607;-66
2022/05/18 07:41:04;;;;;;;3.33;1.13;;;13.10;41.50;;;;;;4419486;28;657714;-66
2022/05/18 07:43:52;;;;;;;2.67;0.90;;;13.00;41.30;;;;;;4385949;28;658301;-66
2022/05/18 07:46:42;;;;;;;1.07;0.87;;;12.80;41.10;;;;;;4405361;28;657389;-66
2022/05/18 07:49:29;;;;;;;2.23;1.30;;;13.10;43.00;;;;;;4397628;28;657930;-66
2022/05/18 07:52:16;;;;;;;1.40;0.70;;;13.60;39.20;;;;;;4385006;28;658519;-67
2022/05/18 07:55:06;;;;;;;7.83;1.07;;;13.50;39.10;;;;;;4402843;28;658081;-66
2022/05/18 07:57:53;;;;;;;4.57;0.70;;;13.90;39.10;;;;;;4377914;28;658114;-66
2022/05/18 08:00:40;;;;;;;3.63;0.90;;;13.80;38.10;;;;;;4435983;28;658358;-66
2022/05/18 08:03:27;;;;;;;2.20;0.90;;;13.70;40.20;;;;;;4421337;28;658649;-66
2022/05/18 08:06:15;;;;;;;1.73;0.70;;;13.50;38.40;;;;;;4394538;28;657673;-66
2022/05/18 08:09:03;;;;;;;4.40;1.03;;;13.50;41.10;;;;;;4402810;28;658616;-66
2022/05/18 08:15:09;;;;;;;3.30;0.77;;;14.30;39.20;;;;;;4381185;28;657743;-66
2022/05/18 08:17:56;;;;;;;1.93;0.70;;;14.50;39.40;;;;;;4383200;28;657245;-66
2022/05/18 08:20:43;;;;;;;1.07;0.60;;;14.50;38.50;;;;;;4393496;28;658848;-66
2022/05/18 08:23:30;;;;;;;2.27;0.70;;;14.10;38.20;;;;;;4385469;28;657898;-66
2022/05/18 08:26:18;;;;;;;1.93;1.07;;;14.50;39.30;;;;;;4401328;28;658986;-66
2022/05/18 08:29:09;;;;;;;1.37;0.77;;;14.40;38.70;;;;;;4396285;28;657353;-66
2022/05/18 08:31:57;;;;;;;4.60;0.70;;;14.40;38.20;;;;;;4385404;28;657249;-66
2022/05/18 08:34:44;;;;;;;2.67;0.87;;;15.00;38.30;;;;;;4407988;28;658397;-66
2022/05/18 08:37:37;;;;;;;1.57;0.70;;;15.20;35.90;;;;;;4383847;28;658391;-66
2022/05/18 08:40:34;;;;;;;4.60;0.70;;;15.20;36.20;;;;;;4381043;28;657590;-66
2022/05/18 08:43:24;;;;;;;1.80;0.67;;;15.60;37.70;;;;;;4377991;28;657776;-66
2022/05/18 08:46:17;;;;;;;1.90;0.77;;;15.50;39.70;;;;;;4384398;28;657496;-66
2022/05/18 08:49:09;;;;;;;1.70;0.73;;;15.50;39.70;;;;;;4417809;28;657332;-66
2022/05/18 08:52:02;;;;;;;3.43;0.80;;;16.20;40.30;;;;;;4410961;28;657567;-66
2022/05/18 08:54:52;;;;;;;3.80;0.80;;;16.30;39.00;;;;;;4380529;28;657747;-66
2022/05/18 08:57:41;;;;;;;2.73;0.60;;;16.70;34.00;;;;;;4404747;28;657693;-66
2022/05/18 09:00:40;;;;;;;2.93;0.70;;;16.60;35.10;;;;;;4380408;28;657601;-66
2022/05/18 09:03:33;;;;;;;3.93;1.17;;;16.10;34.60;;;;;;4346749;28;658950;-67
2022/05/18 09:06:31;;;;;;;2.97;0.63;;;16.60;33.40;;;;;;4380607;28;657793;-66
2022/05/18 09:12:29;;;;;;;3.13;0.80;;;15.60;29.70;;;;;;4369942;28;658013;-66
2022/05/18 09:15:18;;;;;;;2.90;0.70;;;16.10;36.30;;;;;;4366169;28;658578;-66
2022/05/18 09:18:12;;;;;;;1.20;0.70;;;16.40;33.60;;;;;;4382991;28;657896;-66
2022/05/18 09:21:08;;;;;;;5.37;0.70;;;16.40;32.10;;;;;;4379766;28;657149;-66
2022/05/18 09:23:58;;;;;;;4.67;0.80;;;16.90;32.60;;;;;;4363810;28;659145;-66
2022/05/18 09:27:02;;;;;;;2.33;0.70;;;17.40;33.70;;;;;;4385443;28;657734;-66
2022/05/18 09:29:53;;;;;;;3.50;1.10;;;17.50;32.40;;;;;;4375513;28;658058;-67
2022/05/18 09:33:01;;;;;;;1.63;0.80;;;17.40;32.00;;;;;;4358689;28;657763;-66
2022/05/18 09:36:14;;;;;;;1.13;0.60;;;17.70;31.90;;;;;;4375982;28;657330;-66
2022/05/18 09:39:03;;;;;;;1.37;0.63;;;17.60;31.20;;;;;;4381931;28;657355;-66
2022/05/18 09:41:56;;;;;;;1.47;0.70;;;17.00;32.70;;;;;;4387190;28;658002;-66
2022/05/18 09:44:44;;;;;;;2.30;0.90;;;17.50;33.10;;;;;;4378247;28;658845;-66
2022/05/18 09:47:33;;;;;;;4.87;0.77;;;17.50;32.80;;;;;;4384873;28;657338;-67
2022/05/18 09:50:21;;;;;;;2.17;0.70;;;16.70;34.10;;;;;;4381984;28;658251;-66
2022/05/18 09:53:10;;;;;;;3.93;0.80;;;17.40;33.20;;;;;;4396868;28;658102;-66
2022/05/18 09:55:57;;;;;;;4.33;0.77;;;17.30;31.00;;;;;;4378047;28;658055;-66
2022/05/18 09:58:46;;;;;;;1.43;0.80;;;17.10;33.70;;;;;;4409813;28;657386;-67
2022/05/18 10:07:45;;;;;;;3.03;0.70;;;18.70;31.90;;;;;;4373635;28;657695;-66
2022/05/18 10:10:36;;;;;;;4.37;0.70;;;17.60;30.80;;;;;;4383872;28;658817;-67
2022/05/18 10:13:26;;;;;;;1.93;0.63;;;17.90;35.50;;;;;;4377599;28;659414;-66
2022/05/18 10:16:20;;;;;;;3.63;0.70;;;18.30;32.10;;;;;;4382297;28;658008;-67
2022/05/18 10:19:12;;;;;;;1.00;0.67;;;18.20;30.20;;;;;;4358497;28;658095;-67
2022/05/18 10:22:01;;;;;;;2.60;0.70;;;18.00;30.60;;;;;;4398021;28;657321;-67
2022/05/18 10:24:52;;;;;;;1.10;0.60;;;17.80;31.10;;;;;;4383909;28;658450;-66
2022/05/18 10:27:42;;;;;;;2.33;0.63;;;18.40;30.70;;;;;;4375129;28;657625;-66
2022/05/18 10:30:36;;;;;;;2.77;0.80;;;18.20;31.10;;;;;;4369533;28;657421;-67
2022/05/18 10:33:24;;;;;;;3.23;0.70;;;18.40;33.50;;;;;;4376033;28;658466;-67
2022/05/18 10:36:12;;;;;;;3.20;0.60;;;19.10;36.50;;;;;;4386561;28;658276;-66
2022/05/18 10:39:00;;;;;;;1.97;0.67;;;19.20;31.30;;;;;;4401624;28;657816;-66
2022/05/18 10:41:50;;;;;;;0.87;0.60;;;18.60;30.20;;;;;;4398571;28;659038;-67
2022/05/18 10:44:39;;;;;;;2.50;0.65;;;18.20;30.10;;;;;;4387366;28;657852;-67
2022/05/18 10:47:31;;;;;;;3.10;0.80;;;18.70;33.30;;;;;;4372403;28;657389;-67
2022/05/18 10:50:27;;;;;;;1.48;0.50;;;19.20;29.60;;;;;;4377975;28;658325;-67
2022/05/18 10:53:30;;;;;;;3.90;0.70;;;19.40;29.50;;;;;;4373571;28;657596;-67
2022/05/18 10:56:28;;;;;;;1.97;0.70;;;19.30;29.20;;;;;;4345547;28;657834;-67
2022/05/18 10:59:32;;;;;;;3.80;0.70;;;19.80;29.10;;;;;;4360005;28;658231;-67
2022/05/18 11:02:29;;;;;;;1.70;0.60;;;19.30;29.80;;;;;;4368681;28;658423;-67
2022/05/18 11:05:21;;;;;;;2.70;1.00;;;19.40;31.30;;;;;;4377489;28;657412;-67
2022/05/18 11:08:11;;;;;;;1.77;0.67;;;20.00;30.00;;;;;;4397798;28;658193;-67
2022/05/18 11:11:02;;;;;;;2.80;0.60;;;20.60;27.30;;;;;;4374625;28;658368;-66
2022/05/18 11:13:56;;;;;;;2.50;0.73;;;19.10;28.30;;;;;;4358895;28;657672;-67
2022/05/18 11:16:51;;;;;;;2.13;0.90;;;19.50;29.10;;;;;;4371392;28;657793;-67
2022/05/18 11:19:42;;;;;;;1.63;0.70;;;19.80;29.40;;;;;;4376659;28;658427;-67
2022/05/18 11:22:31;;;;;;;3.33;0.87;;;19.70;29.30;;;;;;4397009;28;657576;-67
2022/05/18 11:25:23;;;;;;;2.67;1.10;;;19.90;30.00;;;;;;4405276;28;657443;-67
2022/05/18 11:28:16;;;;;;;3.33;1.03;;;20.10;28.60;;;;;;4351578;28;657688;-67
2022/05/18 11:31:10;;;;;;;2.40;1.00;;;20.60;28.20;;;;;;4380495;28;658130;-67
2022/05/18 11:34:01;;;;;;;2.13;1.03;;;20.60;29.80;;;;;;4346271;28;657640;-67
2022/05/18 11:36:53;;;;;;;4.57;0.70;;;20.60;28.70;;;;;;4379857;28;658563;-67
2022/05/18 11:39:44;;;;;;;4.67;0.80;;;20.80;28.30;;;;;;4374573;28;658090;-67
2022/05/18 11:42:36;;;;;;;1.73;0.87;;;20.20;27.80;;;;;;4376019;28;657658;-67
2022/05/18 11:45:31;;;;;;;3.17;0.90;;;20.00;28.80;;;;;;4373786;28;659267;-66
2022/05/18 11:48:22;;;;;;;3.47;0.80;;;20.10;33.50;;;;;;4381331;28;658182;-66
2022/05/18 11:51:12;;;;;;;1.80;0.90;;;19.80;30.60;;;;;;4378906;28;658099;-66
2022/05/18 11:54:07;;;;;;;3.87;0.90;;;19.80;30.30;;;;;;4386439;28;657624;-67
2022/05/18 11:57:01;;;;;;;1.20;0.80;;;20.10;30.50;;;;;;4406942;28;658052;-67
2022/05/18 12:00:09;;;;;;;4.68;1.10;;;20.20;29.40;;;;;;4382979;28;658057;-67
2022/05/18 12:03:04;;;;;;;1.57;0.90;;;20.00;32.00;;;;;;4355804;28;658162;-66
2022/05/18 12:06:02;;;;;;;4.80;0.70;;;19.40;28.60;;;;;;4362414;28;658399;-66
2022/05/18 12:09:12;;;;;;;2.40;0.90;;;20.50;33.90;;;;;;4381539;28;657877;-66
2022/05/18 12:12:03;;;;;;;5.10;0.83;;;20.20;30.20;;;;;;4369742;28;657764;-66
2022/05/18 12:14:54;;;;;;;3.67;1.20;;;19.60;28.70;;;;;;4359022;28;657537;-66
2022/05/18 12:17:44;;;;;;;2.95;1.08;;;19.10;28.50;;;;;;4385702;28;658668;-66
2022/05/18 12:20:34;;;;;;;2.90;0.90;;;19.20;28.20;;;;;;4380784;28;657317;-66
2022/05/18 12:23:27;;;;;;;4.13;0.80;;;20.40;32.10;;;;;;4375278;28;657638;-66
2022/05/18 12:26:22;;;;;;;1.47;0.70;;;20.80;31.10;;;;;;4400159;28;657723;-66
2022/05/18 12:29:11;;;;;;;0.80;0.60;;;20.00;31.20;;;;;;4355872;28;657668;-66
2022/05/18 12:31:58;;;;;;;9.53;0.97;;;20.10;29.80;;;;;;4405651;28;657971;-66
2022/05/18 12:34:47;;;;;;;4.77;1.00;;;20.20;29.70;;;;;;4385537;28;658211;-66
2022/05/18 12:37:35;;;;;;;1.92;0.60;;;20.30;31.10;;;;;;4395108;28;658443;-66
2022/05/18 12:40:31;;;;;;;0.90;0.60;;;19.80;26.90;;;;;;4372595;28;658920;-66
2022/05/18 12:43:34;;;;;;;1.37;0.90;;;19.90;28.70;;;;;;4377982;28;657746;-65
2022/05/18 12:46:28;;;;;;;1.80;0.70;;;19.40;28.90;;;;;;4352133;28;658166;-65
2022/05/18 12:49:19;;;;;;;1.60;0.70;;;19.20;30.90;;;;;;4351835;28;657797;-66
2022/05/18 12:52:15;;;;;;;1.40;0.70;;;19.60;27.80;;;;;;4358561;28;657667;-66
2022/05/18 12:55:04;;;;;;;3.97;0.80;;;20.20;26.60;;;;;;4353963;28;658913;-67
2022/05/18 12:57:52;;;;;;;1.30;0.70;;;19.90;27.10;;;;;;4386134;28;657596;-66
2022/05/18 13:00:47;;;;;;;1.47;0.60;;;20.10;29.10;;;;;;4399613;28;658236;-66
2022/05/18 13:03:46;;;;;;;1.70;0.60;;;19.70;26.40;;;;;;4380092;28;657629;-66
2022/05/18 13:06:43;;;;;;;1.93;0.70;;;20.20;26.70;;;;;;4379864;28;657823;-66
2022/05/18 13:09:36;;;;;;;3.30;0.70;;;20.20;24.90;;;;;;4355606;28;658091;-66
2022/05/18 13:12:41;;;;;;;2.97;0.60;;;20.10;28.10;;;;;;4361801;28;657862;-66
2022/05/18 13:15:40;;;;;;;1.43;0.57;;;19.30;25.50;;;;;;4373206;28;657877;-66
2022/05/18 13:18:33;;;;;;;4.53;0.70;;;19.80;26.80;;;;;;4353533;28;658828;-66
2022/05/18 13:21:26;;;;;;;0.97;0.60;;;19.90;26.20;;;;;;4366591;28;657722;-66
2022/05/18 13:24:14;;;;;;;0.67;0.40;;;19.90;28.20;;;;;;4376376;28;658624;-66
2022/05/18 13:27:03;;;;;;;3.95;0.73;;;21.30;30.30;;;;;;4385385;28;657681;-66
2022/05/18 13:29:53;;;;;;;5.73;0.70;;;21.70;26.00;;;;;;4378506;28;658167;-66
2022/05/18 13:32:40;;;;;;;1.13;0.60;;;21.90;27.30;;;;;;4381042;28;659511;-66
2022/05/18 13:35:29;;;;;;;5.07;0.70;;;21.50;24.80;;;;;;4401164;28;658830;-66
2022/05/18 13:38:18;;;;;;;0.77;0.50;;;20.60;23.30;;;;;;4382824;28;657953;-66
2022/05/18 13:41:07;;;;;;;1.13;0.40;;;21.90;26.90;;;;;;4382479;28;658356;-66
2022/05/18 13:43:59;;;;;;;1.13;0.53;;;22.60;26.10;;;;;;4397527;28;657360;-66
2022/05/18 13:46:46;;;;;;;2.33;0.90;;;21.30;25.10;;;;;;4381351;28;658418;-66
2022/05/18 13:49:37;;;;;;;1.97;0.70;;;22.00;27.90;;;;;;4401390;28;658145;-66
2022/05/18 13:52:28;;;;;;;1.70;0.60;;;21.30;24.70;;;;;;4401637;28;657727;-66
2022/05/18 13:55:15;;;;;;;1.77;0.93;;;21.60;28.00;;;;;;4354420;28;657685;-66
2022/05/18 13:58:05;;;;;;;1.43;0.70;;;22.10;26.60;;;;;;4400725;28;658970;-66
2022/05/18 14:00:56;;;;;;;2.83;0.70;;;22.10;27.50;;;;;;4386538;28;658663;-66
2022/05/18 14:03:44;;;;;;;2.50;0.70;;;22.50;25.50;;;;;;4376851;28;658708;-66
2022/05/18 14:06:32;;;;;;;2.93;0.70;;;21.50;27.50;;;;;;4381027;28;657583;-66
2022/05/18 14:09:21;;;;;;;3.03;1.00;;;21.10;25.10;;;;;;4397439;28;659193;-66
2022/05/18 14:12:12;;;;;;;1.50;0.87;;;21.30;27.30;;;;;;4382421;28;658655;-66
2022/05/18 14:15:00;;;;;;;4.83;0.77;;;21.50;26.30;;;;;;4370538;28;657616;-66
2022/05/18 14:17:47;;;;;;;5.43;1.60;;;21.40;26.20;;;;;;4409071;28;659243;-66
2022/05/18 14:20:36;;;;;;;3.00;0.70;;;21.60;27.50;;;;;;4401302;28;657674;-67
2022/05/18 14:23:24;;;;;;;2.07;0.77;;;22.30;26.60;;;;;;4378952;28;658283;-66
2022/05/18 14:26:13;;;;;;;3.13;0.70;;;21.80;26.00;;;;;;4384861;28;657782;-66
2022/05/18 14:29:01;;;;;;;1.20;0.60;;;23.40;25.60;;;;;;4394204;28;657372;-66
2022/05/18 14:31:49;;;;;;;3.47;0.67;;;22.70;22.80;;;;;;4404676;28;658376;-66
2022/05/18 14:34:38;;;;;;;1.07;0.77;;;21.90;24.80;;;;;;4379891;28;657877;-67
2022/05/18 14:37:27;;;;;;;5.40;0.80;;;22.90;25.50;;;;;;4385221;28;657663;-66
2022/05/18 14:40:15;;;;;;;1.17;0.60;;;23.30;26.40;;;;;;4401626;28;657562;-66
2022/05/18 14:43:03;;;;;;;2.73;0.80;;;23.80;22.30;;;;;;4385614;28;658559;-67
2022/05/18 14:45:54;;;;;;;1.27;0.60;;;22.50;24.20;;;;;;4389293;28;657287;-66
2022/05/18 14:48:46;;;;;;;4.37;0.93;;;23.70;25.30;;;;;;4381812;28;657438;-67
2022/05/18 14:51:44;;;;;;;1.93;0.70;;;22.60;23.80;;;;;;4351441;28;657684;-67